sensor_id;sensor_type;location;lat;lon;timestamp;temperature;humidity
1417;DHT22;703;51.162;13.574;2023-07-31T00:00:54;14.10;99.90
1417;DHT22;703;51.162;13.574;2023-07-31T00:03:20;13.90;99.90
1417;DHT22;703;51.162;13.574;2023-07-31T00:05:48;13.90;99.90
1417;DHT22;703;51.162;13.574;2023-07-31T00:08:16;13.00;99.90
1417;DHT22;703;51.162;13.574;2023-07-31T00:10:42;13.70;99.90
1417;DHT22;703;51.162;13.574;2023-07-31T00:13:12;13.70;99.90
1417;DHT22;703;51.162;13.574;2023-07-31T00:15:40;13.70;99.90
1417;DHT22;703;51.162;13.574;2023-07-31T00:18:06;13.80;99.90
1417;DHT22;703;51.162;13.574;2023-07-31T00:20:32;13.90;99.90
1417;DHT22;703;51.162;13.574;2023-07-31T00:23:05;13.80;99.90
1417;DHT22;703;51.162;13.574;2023-07-31T00:25:31;14.70;99.90
1417;DHT22;703;51.162;13.574;2023-07-31T00:28:05;13.80;99.90
1417;DHT22;703;51.162;13.574;2023-07-31T00:30:39;13.90;99.90
1417;DHT22;703;51.162;13.574;2023-07-31T00:33:05;13.90;99.90
1417;DHT22;703;51.162;13.574;2023-07-31T00:35:34;13.80;99.90
1417;DHT22;703;51.162;13.574;2023-07-31T00:38:07;13.70;99.90
1417;DHT22;703;51.162;13.574;2023-07-31T00:40:40;13.60;99.90
1417;DHT22;703;51.162;13.574;2023-07-31T00:43:09;13.70;99.90
1417;DHT22;703;51.162;13.574;2023-07-31T00:45:38;13.70;99.90
1417;DHT22;703;51.162;13.574;2023-07-31T00:48:07;13.70;99.90
1417;DHT22;703;51.162;13.574;2023-07-31T00:50:44;13.60;99.90
1417;DHT22;703;51.162;13.574;2023-07-31T00:53:19;13.50;99.90
1417;DHT22;703;51.162;13.574;2023-07-31T00:55:57;13.40;99.90
1417;DHT22;703;51.162;13.574;2023-07-31T00:58:23;13.50;99.90
1417;DHT22;703;51.162;13.574;2023-07-31T01:01:08;13.40;99.90
1417;DHT22;703;51.162;13.574;2023-07-31T01:03:34;13.40;99.90
1417;DHT22;703;51.162;13.574;2023-07-31T01:06:22;13.40;99.90
1417;DHT22;703;51.162;13.574;2023-07-31T01:08:54;13.40;99.90
1417;DHT22;703;51.162;13.574;2023-07-31T01:11:27;13.20;99.90
1417;DHT22;703;51.162;13.574;2023-07-31T01:13:53;13.30;99.90
1417;DHT22;703;51.162;13.574;2023-07-31T01:16:22;13.40;99.90
1417;DHT22;703;51.162;13.574;2023-07-31T01:18:50;13.20;99.90
1417;DHT22;703;51.162;13.574;2023-07-31T01:26:28;13.40;99.90
1417;DHT22;703;51.162;13.574;2023-07-31T01:29:06;13.40;99.90
1417;DHT22;703;51.162;13.574;2023-07-31T01:31:41;13.30;99.90
1417;DHT22;703;51.162;13.574;2023-07-31T01:34:29;13.30;99.90
1417;DHT22;703;51.162;13.574;2023-07-31T01:37:19;13.20;99.90
1417;DHT22;703;51.162;13.574;2023-07-31T01:39:47;13.10;99.90
1417;DHT22;703;51.162;13.574;2023-07-31T01:42:19;13.20;99.90
1417;DHT22;703;51.162;13.574;2023-07-31T01:44:52;13.20;99.90
1417;DHT22;703;51.162;13.574;2023-07-31T01:47:23;13.20;99.90
1417;DHT22;703;51.162;13.574;2023-07-31T01:49:51;13.40;99.90
1417;DHT22;703;51.162;13.574;2023-07-31T01:52:17;13.70;99.90
1417;DHT22;703;51.162;13.574;2023-07-31T01:54:50;13.70;99.90
1417;DHT22;703;51.162;13.574;2023-07-31T01:57:18;13.70;99.90
1417;DHT22;703;51.162;13.574;2023-07-31T02:00:07;13.90;99.90
1417;DHT22;703;51.162;13.574;2023-07-31T02:02:38;13.90;99.90
1417;DHT22;703;51.162;13.574;2023-07-31T02:05:12;14.10;99.90
1417;DHT22;703;51.162;13.574;2023-07-31T02:07:49;14.20;99.90
1417;DHT22;703;51.162;13.574;2023-07-31T02:10:18;14.10;99.90
1417;DHT22;703;51.162;13.574;2023-07-31T02:12:47;14.10;99.90
1417;DHT22;703;51.162;13.574;2023-07-31T02:15:12;14.20;99.90
1417;DHT22;703;51.162;13.574;2023-07-31T02:17:47;14.20;99.90
1417;DHT22;703;51.162;13.574;2023-07-31T02:20:19;14.30;99.90
1417;DHT22;703;51.162;13.574;2023-07-31T02:22:47;14.20;99.90
1417;DHT22;703;51.162;13.574;2023-07-31T02:25:14;14.40;99.90
1417;DHT22;703;51.162;13.574;2023-07-31T02:27:45;14.40;99.90
1417;DHT22;703;51.162;13.574;2023-07-31T02:30:23;14.50;99.90
1417;DHT22;703;51.162;13.574;2023-07-31T02:32:49;14.50;99.90
1417;DHT22;703;51.162;13.574;2023-07-31T02:37:59;14.70;99.90
1417;DHT22;703;51.162;13.574;2023-07-31T02:40:31;14.60;99.90
1417;DHT22;703;51.162;13.574;2023-07-31T02:42:58;14.60;99.90
1417;DHT22;703;51.162;13.574;2023-07-31T02:45:27;14.70;99.90
1417;DHT22;703;51.162;13.574;2023-07-31T02:47:59;14.80;99.90
1417;DHT22;703;51.162;13.574;2023-07-31T02:50:26;14.90;99.90
1417;DHT22;703;51.162;13.574;2023-07-31T02:52:56;14.70;99.90
1417;DHT22;703;51.162;13.574;2023-07-31T02:55:21;14.60;99.90
1417;DHT22;703;51.162;13.574;2023-07-31T02:57:50;14.60;99.90
1417;DHT22;703;51.162;13.574;2023-07-31T03:00:41;14.90;99.90
1417;DHT22;703;51.162;13.574;2023-07-31T03:03:07;14.90;99.90
1417;DHT22;703;51.162;13.574;2023-07-31T03:05:34;14.90;99.90
1417;DHT22;703;51.162;13.574;2023-07-31T03:08:10;15.10;99.90
1417;DHT22;703;51.162;13.574;2023-07-31T03:10:38;15.30;99.90
1417;DHT22;703;51.162;13.574;2023-07-31T03:13:04;15.40;99.90
1417;DHT22;703;51.162;13.574;2023-07-31T03:15:31;15.40;99.90
1417;DHT22;703;51.162;13.574;2023-07-31T03:17:57;15.30;99.90
1417;DHT22;703;51.162;13.574;2023-07-31T03:20:25;15.40;99.90
1417;DHT22;703;51.162;13.574;2023-07-31T03:23:04;15.50;99.90
1417;DHT22;703;51.162;13.574;2023-07-31T03:25:54;15.50;99.90
1417;DHT22;703;51.162;13.574;2023-07-31T03:28:31;15.50;99.90
1417;DHT22;703;51.162;13.574;2023-07-31T03:30:56;15.40;99.90
1417;DHT22;703;51.162;13.574;2023-07-31T03:33:23;15.40;99.90
1417;DHT22;703;51.162;13.574;2023-07-31T03:35:59;15.30;99.90
1417;DHT22;703;51.162;13.574;2023-07-31T03:38:35;15.20;99.90
1417;DHT22;703;51.162;13.574;2023-07-31T03:41:02;15.20;99.90
1417;DHT22;703;51.162;13.574;2023-07-31T03:43:35;15.10;99.90
1417;DHT22;703;51.162;13.574;2023-07-31T03:46:01;15.00;99.90
1417;DHT22;703;51.162;13.574;2023-07-31T03:48:31;15.00;99.90
1417;DHT22;703;51.162;13.574;2023-07-31T03:50:59;15.00;99.90
1417;DHT22;703;51.162;13.574;2023-07-31T03:53:25;14.90;99.90
1417;DHT22;703;51.162;13.574;2023-07-31T03:55:52;14.90;99.90
1417;DHT22;703;51.162;13.574;2023-07-31T03:58:31;14.90;99.90
1417;DHT22;703;51.162;13.574;2023-07-31T04:00:57;14.90;99.90
1417;DHT22;703;51.162;13.574;2023-07-31T04:03:43;14.90;99.90
1417;DHT22;703;51.162;13.574;2023-07-31T04:06:14;14.80;99.90
1417;DHT22;703;51.162;13.574;2023-07-31T04:08:46;14.80;99.90
1417;DHT22;703;51.162;13.574;2023-07-31T04:11:13;14.70;99.90
1417;DHT22;703;51.162;13.574;2023-07-31T04:13:50;14.70;99.90
1417;DHT22;703;51.162;13.574;2023-07-31T04:16:37;14.70;99.90
1417;DHT22;703;51.162;13.574;2023-07-31T04:19:03;14.60;99.90
1417;DHT22;703;51.162;13.574;2023-07-31T04:21:33;14.70;99.90
1417;DHT22;703;51.162;13.574;2023-07-31T04:24:17;14.60;99.90
1417;DHT22;703;51.162;13.574;2023-07-31T04:26:57;14.60;99.90
1417;DHT22;703;51.162;13.574;2023-07-31T04:29:25;14.60;99.90
1417;DHT22;703;51.162;13.574;2023-07-31T04:32:08;14.60;99.90
1417;DHT22;703;51.162;13.574;2023-07-31T04:37:27;14.70;99.90
1417;DHT22;703;51.162;13.574;2023-07-31T04:39:55;14.80;99.90
1417;DHT22;703;51.162;13.574;2023-07-31T04:42:26;14.80;99.90
1417;DHT22;703;51.162;13.574;2023-07-31T04:44:54;14.80;99.90
1417;DHT22;703;51.162;13.574;2023-07-31T04:47:31;14.70;99.90
1417;DHT22;703;51.162;13.574;2023-07-31T04:50:01;14.80;99.90
1417;DHT22;703;51.162;13.574;2023-07-31T04:52:28;14.80;99.90
1417;DHT22;703;51.162;13.574;2023-07-31T04:55:00;14.80;99.90
1417;DHT22;703;51.162;13.574;2023-07-31T04:57:32;14.80;99.90
1417;DHT22;703;51.162;13.574;2023-07-31T05:00:00;14.80;99.90
1417;DHT22;703;51.162;13.574;2023-07-31T05:02:31;14.90;99.90
1417;DHT22;703;51.162;13.574;2023-07-31T05:05:02;14.90;99.90
1417;DHT22;703;51.162;13.574;2023-07-31T05:07:30;14.90;99.90
1417;DHT22;703;51.162;13.574;2023-07-31T05:10:02;14.90;99.90
1417;DHT22;703;51.162;13.574;2023-07-31T05:12:35;14.90;99.90
1417;DHT22;703;51.162;13.574;2023-07-31T05:15:06;14.90;99.90
1417;DHT22;703;51.162;13.574;2023-07-31T05:17:35;14.90;99.90
1417;DHT22;703;51.162;13.574;2023-07-31T05:20:19;14.80;99.90
1417;DHT22;703;51.162;13.574;2023-07-31T05:22:48;14.90;99.90
1417;DHT22;703;51.162;13.574;2023-07-31T05:25:19;15.00;99.90
1417;DHT22;703;51.162;13.574;2023-07-31T05:27:54;15.00;99.90
1417;DHT22;703;51.162;13.574;2023-07-31T05:30:29;15.00;99.90
1417;DHT22;703;51.162;13.574;2023-07-31T05:32:55;15.10;99.90
1417;DHT22;703;51.162;13.574;2023-07-31T05:35:28;15.10;99.90
1417;DHT22;703;51.162;13.574;2023-07-31T05:38:16;15.20;99.90
1417;DHT22;703;51.162;13.574;2023-07-31T05:40:50;15.20;99.90
1417;DHT22;703;51.162;13.574;2023-07-31T05:43:36;15.20;99.90
1417;DHT22;703;51.162;13.574;2023-07-31T05:48:54;15.30;99.90
1417;DHT22;703;51.162;13.574;2023-07-31T05:51:21;15.30;99.90
1417;DHT22;703;51.162;13.574;2023-07-31T05:54:02;15.30;99.90
1417;DHT22;703;51.162;13.574;2023-07-31T05:56:49;15.30;99.90
1417;DHT22;703;51.162;13.574;2023-07-31T05:59:29;15.40;99.90
1417;DHT22;703;51.162;13.574;2023-07-31T06:02:04;15.40;99.90
1417;DHT22;703;51.162;13.574;2023-07-31T06:04:31;15.50;99.90
1417;DHT22;703;51.162;13.574;2023-07-31T06:06:59;15.50;99.90
1417;DHT22;703;51.162;13.574;2023-07-31T06:09:25;15.60;99.90
1417;DHT22;703;51.162;13.574;2023-07-31T06:11:51;15.60;99.90
1417;DHT22;703;51.162;13.574;2023-07-31T06:14:17;15.60;99.90
1417;DHT22;703;51.162;13.574;2023-07-31T06:16:42;15.60;99.90
1417;DHT22;703;51.162;13.574;2023-07-31T06:19:09;15.60;99.90
1417;DHT22;703;51.162;13.574;2023-07-31T06:21:34;15.60;99.90
1417;DHT22;703;51.162;13.574;2023-07-31T06:24:03;15.60;99.90
1417;DHT22;703;51.162;13.574;2023-07-31T06:26:28;15.70;99.90
1417;DHT22;703;51.162;13.574;2023-07-31T06:28:54;15.70;99.90
1417;DHT22;703;51.162;13.574;2023-07-31T06:31:19;15.80;99.90
1417;DHT22;703;51.162;13.574;2023-07-31T06:33:51;15.40;99.90
1417;DHT22;703;51.162;13.574;2023-07-31T06:36:16;15.80;99.90
1417;DHT22;703;51.162;13.574;2023-07-31T06:38:42;15.70;99.90
1417;DHT22;703;51.162;13.574;2023-07-31T06:41:08;15.70;99.90
1417;DHT22;703;51.162;13.574;2023-07-31T06:43:33;15.70;99.90
1417;DHT22;703;51.162;13.574;2023-07-31T06:46:03;15.70;99.90
1417;DHT22;703;51.162;13.574;2023-07-31T06:48:29;15.70;99.90
1417;DHT22;703;51.162;13.574;2023-07-31T06:50:55;15.60;99.90
1417;DHT22;703;51.162;13.574;2023-07-31T06:53:20;15.70;99.90
1417;DHT22;703;51.162;13.574;2023-07-31T06:55:45;15.70;99.90
1417;DHT22;703;51.162;13.574;2023-07-31T06:58:13;15.80;99.90
1417;DHT22;703;51.162;13.574;2023-07-31T07:00:39;15.90;99.90
1417;DHT22;703;51.162;13.574;2023-07-31T07:03:04;15.90;99.90
1417;DHT22;703;51.162;13.574;2023-07-31T07:05:33;15.90;99.90
1417;DHT22;703;51.162;13.574;2023-07-31T07:07:58;16.10;99.90
1417;DHT22;703;51.162;13.574;2023-07-31T07:10:24;16.10;99.90
1417;DHT22;703;51.162;13.574;2023-07-31T07:12:49;16.20;99.90
1417;DHT22;703;51.162;13.574;2023-07-31T07:15:15;16.30;99.90
1417;DHT22;703;51.162;13.574;2023-07-31T07:17:40;16.40;99.90
1417;DHT22;703;51.162;13.574;2023-07-31T07:20:06;16.50;99.90
1417;DHT22;703;51.162;13.574;2023-07-31T07:22:33;16.70;99.90
1417;DHT22;703;51.162;13.574;2023-07-31T07:24:58;16.80;99.90
1417;DHT22;703;51.162;13.574;2023-07-31T07:27:24;16.80;99.90
1417;DHT22;703;51.162;13.574;2023-07-31T07:29:50;16.90;99.90
1417;DHT22;703;51.162;13.574;2023-07-31T07:32:15;17.00;99.90
1417;DHT22;703;51.162;13.574;2023-07-31T07:34:42;17.20;99.90
1417;DHT22;703;51.162;13.574;2023-07-31T07:37:08;17.30;99.90
1417;DHT22;703;51.162;13.574;2023-07-31T07:39:33;17.40;99.90
1417;DHT22;703;51.162;13.574;2023-07-31T07:41:59;17.40;99.90
1417;DHT22;703;51.162;13.574;2023-07-31T07:44:24;17.40;99.90
1417;DHT22;703;51.162;13.574;2023-07-31T07:46:50;17.50;99.90
1417;DHT22;703;51.162;13.574;2023-07-31T07:49:15;17.50;99.90
1417;DHT22;703;51.162;13.574;2023-07-31T07:51:41;17.50;99.90
1417;DHT22;703;51.162;13.574;2023-07-31T07:54:06;17.50;99.90
1417;DHT22;703;51.162;13.574;2023-07-31T07:56:32;17.60;99.90
1417;DHT22;703;51.162;13.574;2023-07-31T07:58:58;17.70;99.90
1417;DHT22;703;51.162;13.574;2023-07-31T08:01:23;17.80;99.90
1417;DHT22;703;51.162;13.574;2023-07-31T08:03:49;17.80;99.90
1417;DHT22;703;51.162;13.574;2023-07-31T08:06:15;17.80;99.90
1417;DHT22;703;51.162;13.574;2023-07-31T08:08:40;17.80;99.90
1417;DHT22;703;51.162;13.574;2023-07-31T08:11:06;18.00;99.90
1417;DHT22;703;51.162;13.574;2023-07-31T08:13:31;18.00;99.90
1417;DHT22;703;51.162;13.574;2023-07-31T08:15:57;18.00;99.90
1417;DHT22;703;51.162;13.574;2023-07-31T08:18:22;18.00;99.90
1417;DHT22;703;51.162;13.574;2023-07-31T08:20:48;18.00;99.90
1417;DHT22;703;51.162;13.574;2023-07-31T08:23:13;18.00;99.90
1417;DHT22;703;51.162;13.574;2023-07-31T08:25:39;17.90;99.90
1417;DHT22;703;51.162;13.574;2023-07-31T08:28:04;18.00;99.90
1417;DHT22;703;51.162;13.574;2023-07-31T08:30:30;17.90;99.90
1417;DHT22;703;51.162;13.574;2023-07-31T08:32:56;18.00;99.90
1417;DHT22;703;51.162;13.574;2023-07-31T08:35:21;18.10;99.90
1417;DHT22;703;51.162;13.574;2023-07-31T08:37:47;18.20;99.90
1417;DHT22;703;51.162;13.574;2023-07-31T08:40:12;18.10;99.90
1417;DHT22;703;51.162;13.574;2023-07-31T08:42:49;18.20;99.90
1417;DHT22;703;51.162;13.574;2023-07-31T08:45:15;18.20;99.90
1417;DHT22;703;51.162;13.574;2023-07-31T08:47:45;18.20;99.90
1417;DHT22;703;51.162;13.574;2023-07-31T08:50:12;18.20;99.90
1417;DHT22;703;51.162;13.574;2023-07-31T08:52:37;18.20;99.90
1417;DHT22;703;51.162;13.574;2023-07-31T08:55:03;18.20;99.90
1417;DHT22;703;51.162;13.574;2023-07-31T08:57:29;17.80;99.90
1417;DHT22;703;51.162;13.574;2023-07-31T08:59:55;18.10;99.90
1417;DHT22;703;51.162;13.574;2023-07-31T09:02:21;18.10;99.90
1417;DHT22;703;51.162;13.574;2023-07-31T09:04:48;18.20;99.90
1417;DHT22;703;51.162;13.574;2023-07-31T09:07:13;18.20;99.90
1417;DHT22;703;51.162;13.574;2023-07-31T09:09:40;18.20;99.90
1417;DHT22;703;51.162;13.574;2023-07-31T09:12:05;19.20;99.90
1417;DHT22;703;51.162;13.574;2023-07-31T09:14:32;18.10;99.90
1417;DHT22;703;51.162;13.574;2023-07-31T09:16:58;18.20;99.90
1417;DHT22;703;51.162;13.574;2023-07-31T09:19:34;18.30;99.90
1417;DHT22;703;51.162;13.574;2023-07-31T09:22:02;18.30;99.90
1417;DHT22;703;51.162;13.574;2023-07-31T09:24:28;18.20;99.90
1417;DHT22;703;51.162;13.574;2023-07-31T09:26:55;18.30;99.90
1417;DHT22;703;51.162;13.574;2023-07-31T09:29:21;18.40;99.90
1417;DHT22;703;51.162;13.574;2023-07-31T09:31:47;18.40;99.90
1417;DHT22;703;51.162;13.574;2023-07-31T09:34:12;18.30;99.90
1417;DHT22;703;51.162;13.574;2023-07-31T09:36:41;18.40;99.90
1417;DHT22;703;51.162;13.574;2023-07-31T09:39:08;18.40;99.90
1417;DHT22;703;51.162;13.574;2023-07-31T09:41:38;18.40;99.90
1417;DHT22;703;51.162;13.574;2023-07-31T09:44:04;18.50;99.90
1417;DHT22;703;51.162;13.574;2023-07-31T09:46:29;18.50;99.90
1417;DHT22;703;51.162;13.574;2023-07-31T09:49:13;18.50;99.90
1417;DHT22;703;51.162;13.574;2023-07-31T09:51:41;18.60;99.90
1417;DHT22;703;51.162;13.574;2023-07-31T09:54:10;18.60;99.90
1417;DHT22;703;51.162;13.574;2023-07-31T09:56:46;18.60;99.90
1417;DHT22;703;51.162;13.574;2023-07-31T09:59:12;18.60;99.90
1417;DHT22;703;51.162;13.574;2023-07-31T10:01:39;18.60;99.90
1417;DHT22;703;51.162;13.574;2023-07-31T10:04:05;18.60;99.90
1417;DHT22;703;51.162;13.574;2023-07-31T10:06:33;18.60;99.90
1417;DHT22;703;51.162;13.574;2023-07-31T10:08:59;18.60;99.90
1417;DHT22;703;51.162;13.574;2023-07-31T10:11:25;18.60;99.90
1417;DHT22;703;51.162;13.574;2023-07-31T10:13:55;18.70;99.90
1417;DHT22;703;51.162;13.574;2023-07-31T10:16:21;18.70;99.90
1417;DHT22;703;51.162;13.574;2023-07-31T10:18:47;18.70;99.90
1417;DHT22;703;51.162;13.574;2023-07-31T10:21:13;18.80;99.90
1417;DHT22;703;51.162;13.574;2023-07-31T10:23:39;18.80;99.90
1417;DHT22;703;51.162;13.574;2023-07-31T10:26:05;18.90;99.90
1417;DHT22;703;51.162;13.574;2023-07-31T10:28:32;19.00;99.90
1417;DHT22;703;51.162;13.574;2023-07-31T10:31:01;19.00;99.90
1417;DHT22;703;51.162;13.574;2023-07-31T10:33:27;19.10;99.90
1417;DHT22;703;51.162;13.574;2023-07-31T10:36:11;19.20;99.90
1417;DHT22;703;51.162;13.574;2023-07-31T10:38:37;19.20;99.90
1417;DHT22;703;51.162;13.574;2023-07-31T10:41:09;19.20;99.90
1417;DHT22;703;51.162;13.574;2023-07-31T10:43:36;19.20;99.90
1417;DHT22;703;51.162;13.574;2023-07-31T10:46:06;19.30;99.90
1417;DHT22;703;51.162;13.574;2023-07-31T10:48:33;19.40;99.90
1417;DHT22;703;51.162;13.574;2023-07-31T10:50:58;19.40;99.90
1417;DHT22;703;51.162;13.574;2023-07-31T10:53:31;19.50;99.90
1417;DHT22;703;51.162;13.574;2023-07-31T10:55:58;19.50;99.90
1417;DHT22;703;51.162;13.574;2023-07-31T10:58:23;19.50;99.90
1417;DHT22;703;51.162;13.574;2023-07-31T11:00:49;19.50;99.90
1417;DHT22;703;51.162;13.574;2023-07-31T11:03:18;19.40;99.90
1417;DHT22;703;51.162;13.574;2023-07-31T11:08:13;19.50;99.90
1417;DHT22;703;51.162;13.574;2023-07-31T11:10:39;19.50;99.90
1417;DHT22;703;51.162;13.574;2023-07-31T11:13:04;19.40;99.90
1417;DHT22;703;51.162;13.574;2023-07-31T11:15:30;19.50;99.90
1417;DHT22;703;51.162;13.574;2023-07-31T11:17:56;19.30;99.90
1417;DHT22;703;51.162;13.574;2023-07-31T11:20:26;19.20;99.90
1417;DHT22;703;51.162;13.574;2023-07-31T11:22:52;19.20;99.90
1417;DHT22;703;51.162;13.574;2023-07-31T11:25:17;19.20;99.90
1417;DHT22;703;51.162;13.574;2023-07-31T11:27:43;19.20;99.90
1417;DHT22;703;51.162;13.574;2023-07-31T11:30:09;19.10;99.90
1417;DHT22;703;51.162;13.574;2023-07-31T11:32:38;19.10;99.90
1417;DHT22;703;51.162;13.574;2023-07-31T11:35:04;19.10;99.90
1417;DHT22;703;51.162;13.574;2023-07-31T11:37:40;19.30;99.90
1417;DHT22;703;51.162;13.574;2023-07-31T11:40:07;19.40;99.90
1417;DHT22;703;51.162;13.574;2023-07-31T11:42:33;19.60;99.90
1417;DHT22;703;51.162;13.574;2023-07-31T11:45:01;19.80;99.90
1417;DHT22;703;51.162;13.574;2023-07-31T11:47:26;19.90;99.90
1417;DHT22;703;51.162;13.574;2023-07-31T11:49:52;20.00;99.90
1417;DHT22;703;51.162;13.574;2023-07-31T11:52:18;20.30;99.90
1417;DHT22;703;51.162;13.574;2023-07-31T11:54:45;20.30;99.90
1417;DHT22;703;51.162;13.574;2023-07-31T11:57:11;20.50;99.90
1417;DHT22;703;51.162;13.574;2023-07-31T11:59:37;20.70;99.90
1417;DHT22;703;51.162;13.574;2023-07-31T12:02:03;20.90;99.90
1417;DHT22;703;51.162;13.574;2023-07-31T12:04:29;21.20;99.90
1417;DHT22;703;51.162;13.574;2023-07-31T12:06:55;21.60;99.90
1417;DHT22;703;51.162;13.574;2023-07-31T12:09:20;22.30;99.90
1417;DHT22;703;51.162;13.574;2023-07-31T12:11:46;22.50;99.90
1417;DHT22;703;51.162;13.574;2023-07-31T12:14:22;22.60;99.90
1417;DHT22;703;51.162;13.574;2023-07-31T12:16:53;22.60;99.90
1417;DHT22;703;51.162;13.574;2023-07-31T12:19:19;22.30;99.90
1417;DHT22;703;51.162;13.574;2023-07-31T12:21:44;22.10;99.90
1417;DHT22;703;51.162;13.574;2023-07-31T12:24:10;22.00;99.90
1417;DHT22;703;51.162;13.574;2023-07-31T12:26:35;22.00;99.90
1417;DHT22;703;51.162;13.574;2023-07-31T12:29:01;22.10;99.90
1417;DHT22;703;51.162;13.574;2023-07-31T12:31:27;22.10;99.90
1417;DHT22;703;51.162;13.574;2023-07-31T12:33:53;22.00;99.90
1417;DHT22;703;51.162;13.574;2023-07-31T12:36:23;22.10;99.90
1417;DHT22;703;51.162;13.574;2023-07-31T12:38:52;22.00;99.90
1417;DHT22;703;51.162;13.574;2023-07-31T21:25:21;19.40;99.90
1417;DHT22;703;51.162;13.574;2023-07-31T21:27:47;19.50;99.90
1417;DHT22;703;51.162;13.574;2023-07-31T21:30:12;19.60;99.90
1417;DHT22;703;51.162;13.574;2023-07-31T21:32:38;19.50;99.90
1417;DHT22;703;51.162;13.574;2023-07-31T21:35:03;19.50;99.90
1417;DHT22;703;51.162;13.574;2023-07-31T21:37:29;21.70;99.90
1417;DHT22;703;51.162;13.574;2023-07-31T21:39:55;19.30;99.90
1417;DHT22;703;51.162;13.574;2023-07-31T21:42:20;19.40;99.90
1417;DHT22;703;51.162;13.574;2023-07-31T21:44:47;19.30;99.90
1417;DHT22;703;51.162;13.574;2023-07-31T21:47:13;19.30;99.90
1417;DHT22;703;51.162;13.574;2023-07-31T21:49:39;19.10;99.90
1417;DHT22;703;51.162;13.574;2023-07-31T21:52:04;19.10;99.90
1417;DHT22;703;51.162;13.574;2023-07-31T21:54:30;19.10;99.90
1417;DHT22;703;51.162;13.574;2023-07-31T21:56:55;20.40;99.90
1417;DHT22;703;51.162;13.574;2023-07-31T21:59:21;19.10;99.90
1417;DHT22;703;51.162;13.574;2023-07-31T22:01:46;19.10;99.90
1417;DHT22;703;51.162;13.574;2023-07-31T22:04:12;19.00;99.90
1417;DHT22;703;51.162;13.574;2023-07-31T22:06:37;19.10;99.90
1417;DHT22;703;51.162;13.574;2023-07-31T22:09:03;17.60;99.90
1417;DHT22;703;51.162;13.574;2023-07-31T22:11:29;19.40;99.90
1417;DHT22;703;51.162;13.574;2023-07-31T22:13:54;19.60;99.90
1417;DHT22;703;51.162;13.574;2023-07-31T22:16:20;19.60;99.90
1417;DHT22;703;51.162;13.574;2023-07-31T22:18:45;19.60;99.90
1417;DHT22;703;51.162;13.574;2023-07-31T22:21:10;19.70;99.90
1417;DHT22;703;51.162;13.574;2023-07-31T22:23:38;19.90;99.90
1417;DHT22;703;51.162;13.574;2023-07-31T22:26:04;19.80;99.90
1417;DHT22;703;51.162;13.574;2023-07-31T22:28:29;19.90;99.90
1417;DHT22;703;51.162;13.574;2023-07-31T22:30:55;19.90;99.90
1417;DHT22;703;51.162;13.574;2023-07-31T22:33:20;20.00;99.90
1417;DHT22;703;51.162;13.574;2023-07-31T22:35:48;20.00;99.90
1417;DHT22;703;51.162;13.574;2023-07-31T22:38:13;20.10;99.90
1417;DHT22;703;51.162;13.574;2023-07-31T22:40:39;20.00;99.90
1417;DHT22;703;51.162;13.574;2023-07-31T22:43:04;20.00;99.90
1417;DHT22;703;51.162;13.574;2023-07-31T22:45:30;20.10;99.90
1417;DHT22;703;51.162;13.574;2023-07-31T22:47:55;20.00;99.90
1417;DHT22;703;51.162;13.574;2023-07-31T22:50:21;19.90;99.90
1417;DHT22;703;51.162;13.574;2023-07-31T22:52:46;19.70;99.90
1417;DHT22;703;51.162;13.574;2023-07-31T22:55:13;19.60;99.90
1417;DHT22;703;51.162;13.574;2023-07-31T22:57:38;19.50;99.90
1417;DHT22;703;51.162;13.574;2023-07-31T23:00:04;19.40;99.90
1417;DHT22;703;51.162;13.574;2023-07-31T23:02:30;19.50;99.90
1417;DHT22;703;51.162;13.574;2023-07-31T23:04:55;19.50;99.90
1417;DHT22;703;51.162;13.574;2023-07-31T23:07:21;19.40;99.90
1417;DHT22;703;51.162;13.574;2023-07-31T23:09:46;19.30;99.90
1417;DHT22;703;51.162;13.574;2023-07-31T23:12:12;19.30;99.90
1417;DHT22;703;51.162;13.574;2023-07-31T23:14:37;19.30;99.90
1417;DHT22;703;51.162;13.574;2023-07-31T23:17:03;19.30;99.90
1417;DHT22;703;51.162;13.574;2023-07-31T23:19:28;19.20;99.90
1417;DHT22;703;51.162;13.574;2023-07-31T23:21:54;19.10;99.90
1417;DHT22;703;51.162;13.574;2023-07-31T23:24:19;18.80;99.90
1417;DHT22;703;51.162;13.574;2023-07-31T23:26:45;18.70;99.90
1417;DHT22;703;51.162;13.574;2023-07-31T23:29:10;18.60;99.90
1417;DHT22;703;51.162;13.574;2023-07-31T23:31:36;18.60;99.90
1417;DHT22;703;51.162;13.574;2023-07-31T23:34:01;18.40;99.90
1417;DHT22;703;51.162;13.574;2023-07-31T23:36:31;18.20;99.90
1417;DHT22;703;51.162;13.574;2023-07-31T23:38:56;18.00;99.90
1417;DHT22;703;51.162;13.574;2023-07-31T23:41:22;18.10;99.90
1417;DHT22;703;51.162;13.574;2023-07-31T23:43:48;18.10;99.90
1417;DHT22;703;51.162;13.574;2023-07-31T23:46:13;18.10;99.90
1417;DHT22;703;51.162;13.574;2023-07-31T23:48:39;18.10;99.90
1417;DHT22;703;51.162;13.574;2023-07-31T23:51:04;18.10;99.90
1417;DHT22;703;51.162;13.574;2023-07-31T23:53:31;18.10;99.90
1417;DHT22;703;51.162;13.574;2023-07-31T23:55:56;18.00;99.90
1417;DHT22;703;51.162;13.574;2023-07-31T23:58:22;18.10;99.90
